createdAt,value
2017-04-04T00:08:22.710Z,1015
2017-04-04T00:18:33.826Z,1015
2017-04-04T00:28:45.047Z,1014.9
2017-04-04T00:38:56.277Z,1014.9
2017-04-04T00:49:07.482Z,1014.8
2017-04-04T00:59:18.746Z,1014.8
2017-04-04T01:09:29.985Z,1014.8
2017-04-04T01:19:41.250Z,1014.6
2017-04-04T01:29:52.559Z,1014.7
2017-04-04T01:40:03.843Z,1014.5
2017-04-04T01:50:15.168Z,1014.4
2017-04-04T02:00:26.537Z,1014.4
2017-04-04T02:10:37.954Z,1014.4
2017-04-04T02:20:49.375Z,1014.3
2017-04-04T02:31:00.834Z,1014.4
2017-04-04T02:41:12.338Z,1014.4
2017-04-04T02:51:23.930Z,1014.3
2017-04-04T03:01:35.515Z,1014.3
2017-04-04T03:11:47.060Z,1014.2
2017-04-04T03:21:58.615Z,1014.1
2017-04-04T03:32:10.141Z,1014
2017-04-04T03:42:21.703Z,1014
2017-04-04T03:52:33.316Z,1014.1
2017-04-04T04:02:44.956Z,1014
2017-04-04T04:12:56.629Z,1014
2017-04-04T04:23:08.343Z,1014
2017-04-04T04:33:19.971Z,1014
2017-04-04T04:43:31.534Z,1014
2017-04-04T04:53:43.188Z,1014.1
2017-04-04T05:03:54.843Z,1014.1
2017-04-04T05:14:06.507Z,1014.1
2017-04-04T05:24:18.019Z,1014.2
2017-04-04T05:34:29.435Z,1014.4
2017-04-04T05:44:40.645Z,1014.4
2017-04-04T05:54:51.709Z,1014.4
2017-04-04T06:05:02.571Z,1014.4
2017-04-04T06:15:13.256Z,1014.4
2017-04-04T06:25:23.680Z,1014.4
2017-04-04T06:35:33.987Z,1014.5
2017-04-04T06:45:44.080Z,1014.5
2017-04-04T06:55:53.951Z,1014.5
2017-04-04T07:06:03.665Z,1014.6
2017-04-04T07:16:13.210Z,1014.6
2017-04-04T07:26:22.706Z,1014.7
2017-04-04T07:36:31.967Z,1014.6
2017-04-04T07:46:41.296Z,1014.7
2017-04-04T07:56:50.440Z,1014.9
2017-04-04T08:06:59.519Z,1014.8
2017-04-04T08:17:08.484Z,1014.8
2017-04-04T08:27:17.340Z,1014.9
2017-04-04T08:37:26.207Z,1015
2017-04-04T08:47:35.001Z,1015
2017-04-04T08:57:43.799Z,1015
2017-04-04T09:07:52.553Z,1015.1
2017-04-04T09:18:01.239Z,1015.1
2017-04-04T09:28:09.851Z,1015.1
2017-04-04T09:38:18.379Z,1015
2017-04-04T09:48:26.885Z,1015
2017-04-04T09:58:35.456Z,1014.9
2017-04-04T10:08:44.051Z,1014.8
2017-04-04T10:18:52.684Z,1014.8
2017-04-04T10:29:01.346Z,1014.8
2017-04-04T10:39:09.981Z,1014.8
2017-04-04T10:49:18.603Z,1015.6
2017-04-04T10:59:27.261Z,1015.7
2017-04-04T11:09:35.901Z,1015.7
2017-04-04T11:19:44.492Z,1015.5
2017-04-04T11:29:53.080Z,1015.5
2017-04-04T11:40:01.647Z,1014.7
2017-04-04T11:50:10.165Z,1014.5
2017-04-04T12:00:18.577Z,1014.5
2017-04-04T12:10:26.951Z,1014.4
2017-04-04T12:20:35.325Z,1014.5
2017-04-04T12:30:43.694Z,1014.3
2017-04-04T12:40:52.033Z,1014.2
2017-04-04T12:51:00.274Z,1014.1
2017-04-04T13:01:08.505Z,1014
2017-04-04T13:11:16.770Z,1014
2017-04-04T13:21:25.007Z,1013.8
2017-04-04T13:31:33.249Z,1013.8
2017-04-04T13:41:41.396Z,1013.7
2017-04-04T13:51:49.507Z,1013.7
2017-04-04T14:01:57.640Z,1013.8
2017-04-04T14:12:05.779Z,1013.6
2017-04-04T14:22:13.868Z,1013.5
2017-04-04T14:32:22.036Z,1013.5
2017-04-04T14:42:30.203Z,1013.5
2017-04-04T14:52:38.281Z,1013.4
2017-04-04T15:02:46.340Z,1013.3
2017-04-04T15:12:54.445Z,1013.4
2017-04-04T15:23:02.602Z,1013.3
2017-04-04T15:33:10.714Z,1013.4
2017-04-04T15:43:18.900Z,1013.4
2017-04-04T15:53:27.150Z,1013.4
2017-04-04T16:13:44.354Z,1013.3
2017-04-04T16:23:53.422Z,1013.3
2017-04-04T16:34:02.655Z,1013.2
2017-04-04T16:44:11.984Z,1013.3
2017-04-04T16:54:21.234Z,1013.4
2017-04-04T17:04:30.393Z,1013.3
2017-04-04T17:14:39.744Z,1013.4
2017-04-04T17:24:49.231Z,1013.4
2017-04-04T17:34:58.887Z,1013.4
2017-04-04T17:45:08.676Z,1013.4
2017-04-04T17:55:18.571Z,1013.6
2017-04-04T18:05:28.487Z,1013.6
2017-04-04T18:15:38.503Z,1013.5
2017-04-04T18:25:48.604Z,1013.6
2017-04-04T18:35:58.737Z,1013.9
2017-04-04T18:46:08.890Z,1014
2017-04-04T18:56:19.078Z,1014.1
2017-04-04T19:06:29.363Z,1014.2
2017-04-04T19:16:39.694Z,1014.1
2017-04-04T19:26:50.116Z,1014.1
2017-04-04T19:37:00.490Z,1014.2
2017-04-04T19:47:10.923Z,1014.2
2017-04-04T19:57:21.297Z,1014.4
2017-04-04T20:07:31.753Z,1014.3
2017-04-04T20:17:42.214Z,1014.4
2017-04-04T20:27:52.674Z,1014.4
2017-04-04T20:38:03.144Z,1014.4
2017-04-04T20:48:13.653Z,1014.4
2017-04-04T20:58:24.216Z,1014.5
2017-04-04T21:08:34.834Z,1014.5
2017-04-04T21:18:45.477Z,1014.5
2017-04-04T21:28:56.134Z,1014.5
2017-04-04T21:39:06.792Z,1014.5
2017-04-04T21:49:17.484Z,1014.6
2017-04-04T21:59:28.213Z,1014.6
2017-04-04T22:09:38.953Z,1014.7
2017-04-04T22:19:49.716Z,1014.8
2017-04-04T22:30:00.540Z,1014.7
2017-04-04T22:40:11.422Z,1014.8
2017-04-04T22:50:22.280Z,1014.8
2017-04-04T23:00:33.140Z,1014.8
2017-04-04T23:10:43.985Z,1014.7
2017-04-04T23:20:54.898Z,1014.8
2017-04-04T23:31:05.797Z,1014.7
2017-04-04T23:41:16.695Z,1014.7
2017-04-04T23:51:27.627Z,1014.6
